sensor_id;sensor_type;location;lat;lon;timestamp;temperature;humidity
1994;DHT22;998;49.906;10.908;2022-09-09T00:00:18;16.60;99.90
1994;DHT22;998;49.906;10.908;2022-09-09T00:02:50;16.50;99.90
1994;DHT22;998;49.906;10.908;2022-09-09T00:05:24;16.50;99.90
1994;DHT22;998;49.906;10.908;2022-09-09T00:07:56;16.50;99.90
1994;DHT22;998;49.906;10.908;2022-09-09T00:10:29;16.50;99.90
1994;DHT22;998;49.906;10.908;2022-09-09T00:13:01;16.50;99.90
1994;DHT22;998;49.906;10.908;2022-09-09T00:15:38;16.40;99.90
1994;DHT22;998;49.906;10.908;2022-09-09T00:18:13;16.40;99.90
1994;DHT22;998;49.906;10.908;2022-09-09T00:20:48;16.50;99.90
1994;DHT22;998;49.906;10.908;2022-09-09T00:23:21;16.60;99.90
1994;DHT22;998;49.906;10.908;2022-09-09T00:25:57;16.60;99.90
1994;DHT22;998;49.906;10.908;2022-09-09T00:28:27;16.60;99.90
1994;DHT22;998;49.906;10.908;2022-09-09T00:31:00;16.60;99.90
1994;DHT22;998;49.906;10.908;2022-09-09T00:33:30;16.60;99.90
1994;DHT22;998;49.906;10.908;2022-09-09T00:35:58;16.50;99.90
1994;DHT22;998;49.906;10.908;2022-09-09T00:38:31;16.50;99.90
1994;DHT22;998;49.906;10.908;2022-09-09T00:41:03;16.50;99.90
1994;DHT22;998;49.906;10.908;2022-09-09T00:43:33;16.50;99.90
1994;DHT22;998;49.906;10.908;2022-09-09T00:46:21;16.50;99.90
1994;DHT22;998;49.906;10.908;2022-09-09T00:49:00;16.50;99.90
1994;DHT22;998;49.906;10.908;2022-09-09T00:51:40;16.50;99.90
1994;DHT22;998;49.906;10.908;2022-09-09T00:54:27;16.40;99.90
1994;DHT22;998;49.906;10.908;2022-09-09T00:57:07;16.40;99.90
1994;DHT22;998;49.906;10.908;2022-09-09T00:59:46;16.30;99.90
1994;DHT22;998;49.906;10.908;2022-09-09T01:02:19;16.50;99.90
1994;DHT22;998;49.906;10.908;2022-09-09T01:04:48;16.40;99.90
1994;DHT22;998;49.906;10.908;2022-09-09T01:07:17;16.60;99.90
1994;DHT22;998;49.906;10.908;2022-09-09T01:09:51;16.60;99.90
1994;DHT22;998;49.906;10.908;2022-09-09T01:12:26;16.60;99.90
1994;DHT22;998;49.906;10.908;2022-09-09T01:15:01;16.70;99.90
1994;DHT22;998;49.906;10.908;2022-09-09T01:17:32;16.70;99.90
1994;DHT22;998;49.906;10.908;2022-09-09T01:20:05;16.80;99.90
1994;DHT22;998;49.906;10.908;2022-09-09T01:22:37;16.80;99.90
1994;DHT22;998;49.906;10.908;2022-09-09T01:25:22;17.10;99.90
1994;DHT22;998;49.906;10.908;2022-09-09T01:27:56;17.30;99.90
1994;DHT22;998;49.906;10.908;2022-09-09T01:30:25;17.30;99.90
1994;DHT22;998;49.906;10.908;2022-09-09T01:32:55;17.30;99.90
1994;DHT22;998;49.906;10.908;2022-09-09T01:35:32;17.30;99.90
1994;DHT22;998;49.906;10.908;2022-09-09T01:38:01;17.30;99.90
1994;DHT22;998;49.906;10.908;2022-09-09T01:40:28;17.10;99.90
1994;DHT22;998;49.906;10.908;2022-09-09T01:42:56;17.10;99.90
1994;DHT22;998;49.906;10.908;2022-09-09T01:45:23;17.10;99.90
1994;DHT22;998;49.906;10.908;2022-09-09T01:47:52;17.00;99.90
1994;DHT22;998;49.906;10.908;2022-09-09T01:50:19;16.60;99.90
1994;DHT22;998;49.906;10.908;2022-09-09T01:52:50;16.60;99.90
1994;DHT22;998;49.906;10.908;2022-09-09T01:55:23;16.50;99.90
1994;DHT22;998;49.906;10.908;2022-09-09T01:58:01;16.30;99.90
1994;DHT22;998;49.906;10.908;2022-09-09T02:00:34;16.30;99.90
1994;DHT22;998;49.906;10.908;2022-09-09T02:03:08;16.40;99.90
1994;DHT22;998;49.906;10.908;2022-09-09T02:05:40;16.30;99.90
1994;DHT22;998;49.906;10.908;2022-09-09T02:08:10;16.30;99.90
1994;DHT22;998;49.906;10.908;2022-09-09T02:10:44;16.30;99.90
1994;DHT22;998;49.906;10.908;2022-09-09T02:13:17;16.30;99.90
1994;DHT22;998;49.906;10.908;2022-09-09T02:15:48;16.20;99.90
1994;DHT22;998;49.906;10.908;2022-09-09T02:18:21;16.20;99.90
1994;DHT22;998;49.906;10.908;2022-09-09T02:20:51;16.00;99.90
1994;DHT22;998;49.906;10.908;2022-09-09T02:23:19;16.10;99.90
1994;DHT22;998;49.906;10.908;2022-09-09T02:25:48;16.10;99.90
1994;DHT22;998;49.906;10.908;2022-09-09T02:28:20;16.10;99.90
1994;DHT22;998;49.906;10.908;2022-09-09T02:30:50;16.20;99.90
1994;DHT22;998;49.906;10.908;2022-09-09T02:33:23;16.20;99.90
1994;DHT22;998;49.906;10.908;2022-09-09T02:35:52;16.20;99.90
1994;DHT22;998;49.906;10.908;2022-09-09T02:38:20;16.20;99.90
1994;DHT22;998;49.906;10.908;2022-09-09T02:40:48;16.10;99.90
1994;DHT22;998;49.906;10.908;2022-09-09T02:43:15;16.10;99.90
1994;DHT22;998;49.906;10.908;2022-09-09T02:45:49;16.20;99.90
1994;DHT22;998;49.906;10.908;2022-09-09T02:48:23;16.30;99.90
1994;DHT22;998;49.906;10.908;2022-09-09T02:50:56;16.50;99.90
1994;DHT22;998;49.906;10.908;2022-09-09T02:53:31;16.40;99.90
1994;DHT22;998;49.906;10.908;2022-09-09T02:56:04;16.40;99.90
1994;DHT22;998;49.906;10.908;2022-09-09T02:58:32;16.40;99.90
1994;DHT22;998;49.906;10.908;2022-09-09T03:01:00;16.30;99.90
1994;DHT22;998;49.906;10.908;2022-09-09T03:03:28;16.40;99.90
1994;DHT22;998;49.906;10.908;2022-09-09T03:05:55;16.40;99.90
1994;DHT22;998;49.906;10.908;2022-09-09T03:08:23;16.30;99.90
1994;DHT22;998;49.906;10.908;2022-09-09T03:10:49;16.30;99.90
1994;DHT22;998;49.906;10.908;2022-09-09T03:13:18;16.10;99.90
1994;DHT22;998;49.906;10.908;2022-09-09T03:15:45;16.10;99.90
1994;DHT22;998;49.906;10.908;2022-09-09T03:18:15;16.10;99.90
1994;DHT22;998;49.906;10.908;2022-09-09T03:20:42;16.10;99.90
1994;DHT22;998;49.906;10.908;2022-09-09T03:23:09;16.20;99.90
1994;DHT22;998;49.906;10.908;2022-09-09T03:25:36;16.20;99.90
1994;DHT22;998;49.906;10.908;2022-09-09T03:28:02;16.10;99.90
1994;DHT22;998;49.906;10.908;2022-09-09T03:30:29;16.10;99.90
1994;DHT22;998;49.906;10.908;2022-09-09T03:32:56;16.00;99.90
1994;DHT22;998;49.906;10.908;2022-09-09T03:35:24;16.00;99.90
1994;DHT22;998;49.906;10.908;2022-09-09T03:37:51;16.20;99.90
1994;DHT22;998;49.906;10.908;2022-09-09T03:40:18;16.30;99.90
1994;DHT22;998;49.906;10.908;2022-09-09T03:42:45;16.40;99.90
1994;DHT22;998;49.906;10.908;2022-09-09T03:45:13;16.40;99.90
1994;DHT22;998;49.906;10.908;2022-09-09T03:47:40;16.30;99.90
1994;DHT22;998;49.906;10.908;2022-09-09T03:50:08;16.20;99.90
1994;DHT22;998;49.906;10.908;2022-09-09T03:52:39;16.30;99.90
1994;DHT22;998;49.906;10.908;2022-09-09T03:55:07;16.10;99.90
1994;DHT22;998;49.906;10.908;2022-09-09T03:57:34;16.00;99.90
1994;DHT22;998;49.906;10.908;2022-09-09T04:00:02;16.10;99.90
1994;DHT22;998;49.906;10.908;2022-09-09T04:02:29;16.20;99.90
1994;DHT22;998;49.906;10.908;2022-09-09T04:04:56;16.10;99.90
1994;DHT22;998;49.906;10.908;2022-09-09T04:07:22;16.00;99.90
1994;DHT22;998;49.906;10.908;2022-09-09T04:09:50;16.00;99.90
1994;DHT22;998;49.906;10.908;2022-09-09T04:12:18;16.00;99.90
1994;DHT22;998;49.906;10.908;2022-09-09T04:14:45;15.90;99.90
1994;DHT22;998;49.906;10.908;2022-09-09T04:17:12;15.90;99.90
1994;DHT22;998;49.906;10.908;2022-09-09T04:19:38;15.90;99.90
1994;DHT22;998;49.906;10.908;2022-09-09T04:22:05;15.90;99.90
1994;DHT22;998;49.906;10.908;2022-09-09T04:24:32;15.90;99.90
1994;DHT22;998;49.906;10.908;2022-09-09T04:27:00;15.80;99.90
1994;DHT22;998;49.906;10.908;2022-09-09T04:29:27;15.90;99.90
1994;DHT22;998;49.906;10.908;2022-09-09T04:31:54;15.90;99.90
1994;DHT22;998;49.906;10.908;2022-09-09T04:34:20;15.80;99.90
1994;DHT22;998;49.906;10.908;2022-09-09T04:36:47;15.80;99.90
1994;DHT22;998;49.906;10.908;2022-09-09T04:39:14;15.90;99.90
1994;DHT22;998;49.906;10.908;2022-09-09T04:41:41;16.00;99.90
1994;DHT22;998;49.906;10.908;2022-09-09T04:44:09;16.00;99.90
1994;DHT22;998;49.906;10.908;2022-09-09T04:46:36;16.00;99.90
1994;DHT22;998;49.906;10.908;2022-09-09T04:49:03;16.10;99.90
1994;DHT22;998;49.906;10.908;2022-09-09T04:51:30;16.10;99.90
1994;DHT22;998;49.906;10.908;2022-09-09T04:53:57;16.00;99.90
1994;DHT22;998;49.906;10.908;2022-09-09T04:56:24;16.00;99.90
1994;DHT22;998;49.906;10.908;2022-09-09T04:58:53;16.00;99.90
1994;DHT22;998;49.906;10.908;2022-09-09T05:01:22;16.00;99.90
1994;DHT22;998;49.906;10.908;2022-09-09T05:03:50;15.90;99.90
1994;DHT22;998;49.906;10.908;2022-09-09T05:06:18;15.90;99.90
1994;DHT22;998;49.906;10.908;2022-09-09T05:08:45;15.90;99.90
1994;DHT22;998;49.906;10.908;2022-09-09T05:11:14;16.00;99.90
1994;DHT22;998;49.906;10.908;2022-09-09T05:13:42;16.00;99.90
1994;DHT22;998;49.906;10.908;2022-09-09T05:16:09;16.00;99.90
1994;DHT22;998;49.906;10.908;2022-09-09T05:18:38;16.10;99.90
1994;DHT22;998;49.906;10.908;2022-09-09T05:21:05;16.20;99.90
1994;DHT22;998;49.906;10.908;2022-09-09T05:23:32;16.20;99.90
1994;DHT22;998;49.906;10.908;2022-09-09T05:25:59;16.20;99.90
1994;DHT22;998;49.906;10.908;2022-09-09T05:28:27;16.20;99.90
1994;DHT22;998;49.906;10.908;2022-09-09T05:30:58;16.40;99.90
1994;DHT22;998;49.906;10.908;2022-09-09T05:33:26;16.50;99.90
1994;DHT22;998;49.906;10.908;2022-09-09T05:36:02;16.60;99.90
1994;DHT22;998;49.906;10.908;2022-09-09T05:38:30;16.70;99.90
1994;DHT22;998;49.906;10.908;2022-09-09T05:40:57;16.80;99.90
1994;DHT22;998;49.906;10.908;2022-09-09T05:43:25;16.70;99.90
1994;DHT22;998;49.906;10.908;2022-09-09T05:46:03;16.80;99.90
1994;DHT22;998;49.906;10.908;2022-09-09T05:48:31;16.90;99.90
1994;DHT22;998;49.906;10.908;2022-09-09T05:51:00;17.00;99.90
1994;DHT22;998;49.906;10.908;2022-09-09T05:53:28;16.90;99.90
1994;DHT22;998;49.906;10.908;2022-09-09T05:56:01;16.90;99.90
1994;DHT22;998;49.906;10.908;2022-09-09T05:58:29;16.70;99.90
1994;DHT22;998;49.906;10.908;2022-09-09T06:01:01;16.60;99.90
1994;DHT22;998;49.906;10.908;2022-09-09T06:03:28;16.50;99.90
1994;DHT22;998;49.906;10.908;2022-09-09T06:06:00;16.40;99.90
1994;DHT22;998;49.906;10.908;2022-09-09T06:08:28;16.50;99.90
1994;DHT22;998;49.906;10.908;2022-09-09T06:11:01;16.50;99.90
1994;DHT22;998;49.906;10.908;2022-09-09T06:13:29;16.60;99.90
1994;DHT22;998;49.906;10.908;2022-09-09T06:15:56;16.70;99.90
1994;DHT22;998;49.906;10.908;2022-09-09T06:18:24;16.70;99.90
1994;DHT22;998;49.906;10.908;2022-09-09T06:20:55;16.80;99.90
1994;DHT22;998;49.906;10.908;2022-09-09T06:23:24;16.70;99.90
1994;DHT22;998;49.906;10.908;2022-09-09T06:25:52;16.70;99.90
1994;DHT22;998;49.906;10.908;2022-09-09T06:28:26;16.80;99.90
1994;DHT22;998;49.906;10.908;2022-09-09T06:30:57;16.70;99.90
1994;DHT22;998;49.906;10.908;2022-09-09T06:33:24;16.60;99.90
1994;DHT22;998;49.906;10.908;2022-09-09T06:35:51;16.70;99.90
1994;DHT22;998;49.906;10.908;2022-09-09T06:38:18;16.70;99.90
1994;DHT22;998;49.906;10.908;2022-09-09T06:40:52;16.70;99.90
1994;DHT22;998;49.906;10.908;2022-09-09T06:43:20;16.60;99.90
1994;DHT22;998;49.906;10.908;2022-09-09T06:45:53;16.70;99.90
1994;DHT22;998;49.906;10.908;2022-09-09T06:48:20;16.70;99.90
1994;DHT22;998;49.906;10.908;2022-09-09T06:50:47;16.60;99.90
1994;DHT22;998;49.906;10.908;2022-09-09T06:53:16;16.60;99.90
1994;DHT22;998;49.906;10.908;2022-09-09T06:55:44;16.70;99.90
1994;DHT22;998;49.906;10.908;2022-09-09T06:58:13;16.70;99.90
1994;DHT22;998;49.906;10.908;2022-09-09T07:00:40;16.90;99.90
1994;DHT22;998;49.906;10.908;2022-09-09T07:03:06;16.80;99.90
1994;DHT22;998;49.906;10.908;2022-09-09T07:05:33;16.70;99.90
1994;DHT22;998;49.906;10.908;2022-09-09T07:08:00;16.70;99.90
1994;DHT22;998;49.906;10.908;2022-09-09T07:10:27;16.80;99.90
1994;DHT22;998;49.906;10.908;2022-09-09T07:12:54;16.80;99.90
1994;DHT22;998;49.906;10.908;2022-09-09T07:15:22;16.90;99.90
1994;DHT22;998;49.906;10.908;2022-09-09T07:17:50;16.90;99.90
1994;DHT22;998;49.906;10.908;2022-09-09T07:20:18;17.00;99.90
1994;DHT22;998;49.906;10.908;2022-09-09T07:22:45;17.10;99.90
1994;DHT22;998;49.906;10.908;2022-09-09T07:25:12;17.20;99.90
1994;DHT22;998;49.906;10.908;2022-09-09T07:27:39;17.20;99.90
1994;DHT22;998;49.906;10.908;2022-09-09T07:30:07;17.30;99.90
1994;DHT22;998;49.906;10.908;2022-09-09T07:32:36;17.40;99.90
1994;DHT22;998;49.906;10.908;2022-09-09T07:35:03;17.40;99.90
1994;DHT22;998;49.906;10.908;2022-09-09T07:37:30;17.40;99.90
1994;DHT22;998;49.906;10.908;2022-09-09T07:39:57;17.50;99.90
1994;DHT22;998;49.906;10.908;2022-09-09T07:42:24;17.50;99.90
1994;DHT22;998;49.906;10.908;2022-09-09T07:44:51;17.60;99.90
1994;DHT22;998;49.906;10.908;2022-09-09T07:47:20;17.60;99.90
1994;DHT22;998;49.906;10.908;2022-09-09T07:49:48;17.70;99.90
1994;DHT22;998;49.906;10.908;2022-09-09T07:52:15;17.70;99.90
1994;DHT22;998;49.906;10.908;2022-09-09T07:54:42;17.70;99.90
1994;DHT22;998;49.906;10.908;2022-09-09T07:57:11;17.80;99.90
1994;DHT22;998;49.906;10.908;2022-09-09T07:59:38;17.80;99.90
1994;DHT22;998;49.906;10.908;2022-09-09T08:02:05;17.90;99.90
1994;DHT22;998;49.906;10.908;2022-09-09T08:04:32;17.90;99.90
1994;DHT22;998;49.906;10.908;2022-09-09T08:07:00;18.00;99.90
1994;DHT22;998;49.906;10.908;2022-09-09T08:09:28;17.90;99.90
1994;DHT22;998;49.906;10.908;2022-09-09T08:11:57;18.00;99.90
1994;DHT22;998;49.906;10.908;2022-09-09T08:14:25;18.10;99.90
1994;DHT22;998;49.906;10.908;2022-09-09T08:16:52;18.20;99.90
1994;DHT22;998;49.906;10.908;2022-09-09T08:19:19;18.20;99.90
1994;DHT22;998;49.906;10.908;2022-09-09T08:21:46;18.20;99.90
1994;DHT22;998;49.906;10.908;2022-09-09T08:24:16;18.30;99.90
1994;DHT22;998;49.906;10.908;2022-09-09T08:26:46;18.20;99.90
1994;DHT22;998;49.906;10.908;2022-09-09T08:29:14;18.20;99.90
1994;DHT22;998;49.906;10.908;2022-09-09T08:31:43;18.30;99.90
1994;DHT22;998;49.906;10.908;2022-09-09T08:34:11;18.30;99.90
1994;DHT22;998;49.906;10.908;2022-09-09T08:36:40;18.30;99.90
1994;DHT22;998;49.906;10.908;2022-09-09T08:42:57;18.30;99.90
1994;DHT22;998;49.906;10.908;2022-09-09T08:52:37;18.50;99.90
1994;DHT22;998;49.906;10.908;2022-09-09T09:05:25;18.80;99.90
1994;DHT22;998;49.906;10.908;2022-09-09T09:08:45;18.90;99.90
1994;DHT22;998;49.906;10.908;2022-09-09T09:11:42;18.80;99.90
1994;DHT22;998;49.906;10.908;2022-09-09T09:14:19;18.90;99.90
1994;DHT22;998;49.906;10.908;2022-09-09T09:16:58;19.10;99.90
1994;DHT22;998;49.906;10.908;2022-09-09T09:19:27;19.10;99.90
1994;DHT22;998;49.906;10.908;2022-09-09T09:22:01;19.20;99.90
1994;DHT22;998;49.906;10.908;2022-09-09T09:24:50;19.20;99.90
1994;DHT22;998;49.906;10.908;2022-09-09T09:27:34;19.30;99.90
1994;DHT22;998;49.906;10.908;2022-09-09T09:30:12;19.40;99.90
1994;DHT22;998;49.906;10.908;2022-09-09T09:32:43;19.40;99.90
1994;DHT22;998;49.906;10.908;2022-09-09T09:35:12;19.50;99.90
1994;DHT22;998;49.906;10.908;2022-09-09T09:37:41;19.50;99.90
1994;DHT22;998;49.906;10.908;2022-09-09T09:40:10;19.60;99.90
1994;DHT22;998;49.906;10.908;2022-09-09T09:42:38;19.60;99.90
1994;DHT22;998;49.906;10.908;2022-09-09T09:45:16;19.60;99.90
1994;DHT22;998;49.906;10.908;2022-09-09T09:47:45;19.50;99.90
1994;DHT22;998;49.906;10.908;2022-09-09T09:50:17;19.60;99.90
1994;DHT22;998;49.906;10.908;2022-09-09T09:53:17;19.80;99.90
1994;DHT22;998;49.906;10.908;2022-09-09T09:55:54;19.80;99.90
1994;DHT22;998;49.906;10.908;2022-09-09T09:58:25;19.90;99.90
1994;DHT22;998;49.906;10.908;2022-09-09T10:00:54;20.10;99.90
1994;DHT22;998;49.906;10.908;2022-09-09T10:03:26;20.00;99.90
1994;DHT22;998;49.906;10.908;2022-09-09T10:05:53;20.10;99.90
1994;DHT22;998;49.906;10.908;2022-09-09T10:08:23;20.10;99.90
1994;DHT22;998;49.906;10.908;2022-09-09T10:11:09;20.00;99.90
1994;DHT22;998;49.906;10.908;2022-09-09T10:13:49;20.10;99.90
1994;DHT22;998;49.906;10.908;2022-09-09T10:16:28;20.10;99.90
1994;DHT22;998;49.906;10.908;2022-09-09T10:18:59;20.10;99.90
1994;DHT22;998;49.906;10.908;2022-09-09T10:24:42;20.30;99.90
1994;DHT22;998;49.906;10.908;2022-09-09T10:27:17;20.40;99.90
1994;DHT22;998;49.906;10.908;2022-09-09T10:30:09;20.60;99.90
1994;DHT22;998;49.906;10.908;2022-09-09T10:32:42;20.50;99.90
1994;DHT22;998;49.906;10.908;2022-09-09T10:35:24;20.50;99.90
1994;DHT22;998;49.906;10.908;2022-09-09T10:38:12;20.40;99.90
1994;DHT22;998;49.906;10.908;2022-09-09T10:40:48;20.40;99.90
1994;DHT22;998;49.906;10.908;2022-09-09T10:43:27;20.60;99.90
1994;DHT22;998;49.906;10.908;2022-09-09T10:46:05;20.70;99.90
1994;DHT22;998;49.906;10.908;2022-09-09T10:48:46;20.70;99.90
1994;DHT22;998;49.906;10.908;2022-09-09T10:51:23;20.80;99.90
1994;DHT22;998;49.906;10.908;2022-09-09T10:54:02;20.90;99.90
1994;DHT22;998;49.906;10.908;2022-09-09T10:56:33;21.00;99.90
1994;DHT22;998;49.906;10.908;2022-09-09T10:59:04;21.00;99.90
1994;DHT22;998;49.906;10.908;2022-09-09T11:01:37;21.00;99.90
1994;DHT22;998;49.906;10.908;2022-09-09T11:04:12;21.10;99.90
1994;DHT22;998;49.906;10.908;2022-09-09T11:06:45;21.10;99.90
1994;DHT22;998;49.906;10.908;2022-09-09T11:09:16;21.10;99.90
1994;DHT22;998;49.906;10.908;2022-09-09T11:11:51;21.20;99.90
1994;DHT22;998;49.906;10.908;2022-09-09T11:14:24;21.10;99.90
1994;DHT22;998;49.906;10.908;2022-09-09T11:16:57;21.00;99.90
1994;DHT22;998;49.906;10.908;2022-09-09T11:19:30;20.90;99.90
1994;DHT22;998;49.906;10.908;2022-09-09T11:22:01;20.90;99.90
1994;DHT22;998;49.906;10.908;2022-09-09T11:24:35;21.50;99.90
1994;DHT22;998;49.906;10.908;2022-09-09T11:27:09;22.20;99.90
1994;DHT22;998;49.906;10.908;2022-09-09T11:30:05;22.90;99.90
1994;DHT22;998;49.906;10.908;2022-09-09T11:33:09;23.30;99.90
1994;DHT22;998;49.906;10.908;2022-09-09T11:35:52;24.40;99.90
1994;DHT22;998;49.906;10.908;2022-09-09T11:38:26;24.60;99.90
1994;DHT22;998;49.906;10.908;2022-09-09T11:40:58;24.40;99.90
1994;DHT22;998;49.906;10.908;2022-09-09T11:43:30;24.70;99.90
1994;DHT22;998;49.906;10.908;2022-09-09T11:46:00;25.30;99.90
1994;DHT22;998;49.906;10.908;2022-09-09T11:48:36;25.40;99.90
1994;DHT22;998;49.906;10.908;2022-09-09T11:51:06;25.10;99.90
1994;DHT22;998;49.906;10.908;2022-09-09T11:53:34;24.60;99.90
1994;DHT22;998;49.906;10.908;2022-09-09T11:56:10;24.20;99.90
1994;DHT22;998;49.906;10.908;2022-09-09T11:58:44;23.80;99.90
1994;DHT22;998;49.906;10.908;2022-09-09T12:01:35;24.00;99.90
1994;DHT22;998;49.906;10.908;2022-09-09T12:04:15;23.60;99.90
1994;DHT22;998;49.906;10.908;2022-09-09T12:06:45;23.40;99.90
1994;DHT22;998;49.906;10.908;2022-09-09T12:09:25;23.10;99.90
1994;DHT22;998;49.906;10.908;2022-09-09T12:12:05;22.90;99.90
1994;DHT22;998;49.906;10.908;2022-09-09T12:14:38;22.60;99.90
1994;DHT22;998;49.906;10.908;2022-09-09T12:17:19;22.10;99.90
1994;DHT22;998;49.906;10.908;2022-09-09T12:19:47;22.20;99.90
1994;DHT22;998;49.906;10.908;2022-09-09T12:22:23;22.50;99.90
1994;DHT22;998;49.906;10.908;2022-09-09T12:25:03;22.90;99.90
1994;DHT22;998;49.906;10.908;2022-09-09T12:27:36;22.30;99.90
1994;DHT22;998;49.906;10.908;2022-09-09T12:30:11;21.90;99.90
1994;DHT22;998;49.906;10.908;2022-09-09T12:32:38;21.50;99.90
1994;DHT22;998;49.906;10.908;2022-09-09T12:35:11;21.30;99.90
1994;DHT22;998;49.906;10.908;2022-09-09T12:37:41;21.10;99.90
1994;DHT22;998;49.906;10.908;2022-09-09T12:40:22;21.00;99.90
1994;DHT22;998;49.906;10.908;2022-09-09T12:42:49;20.80;99.90
1994;DHT22;998;49.906;10.908;2022-09-09T12:45:18;20.80;99.90
1994;DHT22;998;49.906;10.908;2022-09-09T12:47:47;20.70;99.90
1994;DHT22;998;49.906;10.908;2022-09-09T12:50:21;20.70;99.90
1994;DHT22;998;49.906;10.908;2022-09-09T12:52:50;20.60;99.90
1994;DHT22;998;49.906;10.908;2022-09-09T12:55:20;21.00;99.90
1994;DHT22;998;49.906;10.908;2022-09-09T12:57:51;22.20;99.90
1994;DHT22;998;49.906;10.908;2022-09-09T13:00:22;22.50;99.90
1994;DHT22;998;49.906;10.908;2022-09-09T13:02:51;22.20;99.90
1994;DHT22;998;49.906;10.908;2022-09-09T13:05:21;21.80;99.90
1994;DHT22;998;49.906;10.908;2022-09-09T13:07:48;21.40;99.90
1994;DHT22;998;49.906;10.908;2022-09-09T13:10:22;21.40;99.90
1994;DHT22;998;49.906;10.908;2022-09-09T13:12:50;21.40;99.90
1994;DHT22;998;49.906;10.908;2022-09-09T13:15:22;21.30;99.90
1994;DHT22;998;49.906;10.908;2022-09-09T13:17:53;21.30;99.90
1994;DHT22;998;49.906;10.908;2022-09-09T13:20:21;21.20;99.90
1994;DHT22;998;49.906;10.908;2022-09-09T13:22:49;21.20;99.90
1994;DHT22;998;49.906;10.908;2022-09-09T13:25:21;21.90;99.90
1994;DHT22;998;49.906;10.908;2022-09-09T13:27:58;22.80;99.90
1994;DHT22;998;49.906;10.908;2022-09-09T13:30:29;23.80;99.90
1994;DHT22;998;49.906;10.908;2022-09-09T13:33:05;24.00;97.60
1994;DHT22;998;49.906;10.908;2022-09-09T13:35:32;24.00;96.80
1994;DHT22;998;49.906;10.908;2022-09-09T13:38:07;24.80;97.20
1994;DHT22;998;49.906;10.908;2022-09-09T13:40:35;24.90;94.00
1994;DHT22;998;49.906;10.908;2022-09-09T13:43:02;24.40;94.00
1994;DHT22;998;49.906;10.908;2022-09-09T13:45:32;24.10;94.10
1994;DHT22;998;49.906;10.908;2022-09-09T13:48:08;23.90;94.00
1994;DHT22;998;49.906;10.908;2022-09-09T13:50:36;24.60;93.80
1994;DHT22;998;49.906;10.908;2022-09-09T13:53:03;24.70;92.60
1994;DHT22;998;49.906;10.908;2022-09-09T13:55:30;25.30;91.90
1994;DHT22;998;49.906;10.908;2022-09-09T13:57:58;25.00;91.60
1994;DHT22;998;49.906;10.908;2022-09-09T14:00:26;24.20;92.50
1994;DHT22;998;49.906;10.908;2022-09-09T14:02:56;23.60;92.90
1994;DHT22;998;49.906;10.908;2022-09-09T14:05:24;23.50;93.70
1994;DHT22;998;49.906;10.908;2022-09-09T14:07:50;23.60;93.70
1994;DHT22;998;49.906;10.908;2022-09-09T14:10:17;24.00;92.40
1994;DHT22;998;49.906;10.908;2022-09-09T14:12:44;24.30;91.80
1994;DHT22;998;49.906;10.908;2022-09-09T14:15:12;24.60;92.40
1994;DHT22;998;49.906;10.908;2022-09-09T14:17:40;25.20;91.40
1994;DHT22;998;49.906;10.908;2022-09-09T14:20:09;25.60;90.10
1994;DHT22;998;49.906;10.908;2022-09-09T14:22:37;25.60;88.00
1994;DHT22;998;49.906;10.908;2022-09-09T14:25:05;25.90;84.20
1994;DHT22;998;49.906;10.908;2022-09-09T14:27:32;25.90;82.10
1994;DHT22;998;49.906;10.908;2022-09-09T14:30:00;24.90;87.90
1994;DHT22;998;49.906;10.908;2022-09-09T14:32:29;24.70;90.40
1994;DHT22;998;49.906;10.908;2022-09-09T14:34:56;24.50;91.80
1994;DHT22;998;49.906;10.908;2022-09-09T14:37:24;24.00;92.30
1994;DHT22;998;49.906;10.908;2022-09-09T14:39:51;23.80;92.90
1994;DHT22;998;49.906;10.908;2022-09-09T14:42:19;23.60;92.50
1994;DHT22;998;49.906;10.908;2022-09-09T14:44:47;23.40;94.70
1994;DHT22;998;49.906;10.908;2022-09-09T14:47:14;23.50;96.10
1994;DHT22;998;49.906;10.908;2022-09-09T14:49:41;23.30;97.30
1994;DHT22;998;49.906;10.908;2022-09-09T14:52:08;23.20;97.70
1994;DHT22;998;49.906;10.908;2022-09-09T14:54:37;23.10;98.30
1994;DHT22;998;49.906;10.908;2022-09-09T14:57:03;23.00;97.80
1994;DHT22;998;49.906;10.908;2022-09-09T14:59:30;23.10;95.80
1994;DHT22;998;49.906;10.908;2022-09-09T15:01:57;23.00;95.10
1994;DHT22;998;49.906;10.908;2022-09-09T15:04:24;23.10;94.10
1994;DHT22;998;49.906;10.908;2022-09-09T15:06:50;23.00;93.90
1994;DHT22;998;49.906;10.908;2022-09-09T15:09:18;23.00;93.80
1994;DHT22;998;49.906;10.908;2022-09-09T15:11:47;23.00;94.10
1994;DHT22;998;49.906;10.908;2022-09-09T15:14:13;23.00;94.10
1994;DHT22;998;49.906;10.908;2022-09-09T15:16:40;22.80;93.30
1994;DHT22;998;49.906;10.908;2022-09-09T15:19:07;22.80;94.70
1994;DHT22;998;49.906;10.908;2022-09-09T15:21:36;22.70;95.10
1994;DHT22;998;49.906;10.908;2022-09-09T15:24:04;22.70;95.90
1994;DHT22;998;49.906;10.908;2022-09-09T15:26:32;22.70;96.60
1994;DHT22;998;49.906;10.908;2022-09-09T15:29:00;22.60;97.20
1994;DHT22;998;49.906;10.908;2022-09-09T15:31:29;22.60;97.80
1994;DHT22;998;49.906;10.908;2022-09-09T15:33:58;22.60;98.40
1994;DHT22;998;49.906;10.908;2022-09-09T15:36:28;22.50;97.60
1994;DHT22;998;49.906;10.908;2022-09-09T15:38:56;22.50;97.60
1994;DHT22;998;49.906;10.908;2022-09-09T15:41:23;22.40;96.70
1994;DHT22;998;49.906;10.908;2022-09-09T15:43:51;22.40;96.80
1994;DHT22;998;49.906;10.908;2022-09-09T15:46:28;22.30;96.60
1994;DHT22;998;49.906;10.908;2022-09-09T15:48:56;22.40;96.70
1994;DHT22;998;49.906;10.908;2022-09-09T15:51:25;22.30;96.20
1994;DHT22;998;49.906;10.908;2022-09-09T15:53:56;22.20;96.40
1994;DHT22;998;49.906;10.908;2022-09-09T15:56:24;22.20;96.90
1994;DHT22;998;49.906;10.908;2022-09-09T15:58:51;22.20;97.00
1994;DHT22;998;49.906;10.908;2022-09-09T16:01:18;22.20;95.60
1994;DHT22;998;49.906;10.908;2022-09-09T16:03:50;22.10;95.50
1994;DHT22;998;49.906;10.908;2022-09-09T16:06:18;22.00;95.70
1994;DHT22;998;49.906;10.908;2022-09-09T16:08:49;22.00;95.30
1994;DHT22;998;49.906;10.908;2022-09-09T16:11:18;22.00;95.40
1994;DHT22;998;49.906;10.908;2022-09-09T16:13:49;22.00;95.60
1994;DHT22;998;49.906;10.908;2022-09-09T16:16:19;21.90;95.70
1994;DHT22;998;49.906;10.908;2022-09-09T16:18:50;21.90;96.30
1994;DHT22;998;49.906;10.908;2022-09-09T16:21:20;21.80;96.50
1994;DHT22;998;49.906;10.908;2022-09-09T16:23:49;21.90;97.00
1994;DHT22;998;49.906;10.908;2022-09-09T16:26:17;21.80;96.80
1994;DHT22;998;49.906;10.908;2022-09-09T16:28:44;21.80;97.20
1994;DHT22;998;49.906;10.908;2022-09-09T16:31:14;21.70;97.40
1994;DHT22;998;49.906;10.908;2022-09-09T16:33:42;21.70;97.80
1994;DHT22;998;49.906;10.908;2022-09-09T16:36:11;21.70;97.80
1994;DHT22;998;49.906;10.908;2022-09-09T16:38:39;21.70;97.70
1994;DHT22;998;49.906;10.908;2022-09-09T16:41:09;21.70;97.70
1994;DHT22;998;49.906;10.908;2022-09-09T16:43:37;21.70;98.00
1994;DHT22;998;49.906;10.908;2022-09-09T16:46:11;21.70;98.00
1994;DHT22;998;49.906;10.908;2022-09-09T16:48:39;21.70;98.10